createdAt,value
2022-09-15T00:00:50.980Z,76.77
2022-09-15T00:01:50.968Z,76.67
2022-09-15T00:02:50.959Z,76.57
2022-09-15T00:03:50.948Z,76.47
2022-09-15T00:04:50.936Z,76.37
2022-09-15T00:05:50.926Z,76.57
2022-09-15T00:06:50.916Z,76.61
2022-09-15T00:07:50.905Z,76.81
2022-09-15T00:08:50.889Z,77.01
2022-09-15T00:09:50.885Z,77.11
2022-09-15T00:10:50.875Z,76.97
2022-09-15T00:11:50.862Z,76.87
2022-09-15T00:12:50.852Z,76.77
2022-09-15T00:13:50.838Z,76.67
2022-09-15T00:14:50.829Z,76.4
2022-09-15T00:15:50.820Z,76.67
2022-09-15T00:16:50.807Z,76.57
2022-09-15T00:17:50.800Z,76.47
2022-09-15T00:18:50.784Z,76.27
2022-09-15T00:19:50.777Z,76.37
2022-09-15T00:20:50.764Z,75.96
2022-09-15T00:21:50.760Z,76.17
2022-09-15T00:22:50.745Z,76.17
2022-09-15T00:23:50.731Z,75.87
2022-09-15T00:24:50.721Z,75.96
2022-09-15T00:25:50.708Z,76.07
2022-09-15T00:26:50.699Z,75.87
2022-09-15T00:27:50.707Z,75.87
2022-09-15T00:28:50.681Z,75.76
2022-09-15T00:29:50.669Z,75.67
2022-09-15T00:30:50.656Z,76.27
2022-09-15T00:31:50.650Z,76.27
2022-09-15T00:32:50.634Z,76.07
2022-09-15T00:33:50.624Z,75.36
2022-09-15T00:34:50.614Z,76.27
2022-09-15T00:35:50.605Z,75.96
2022-09-15T00:36:50.598Z,76.31
2022-09-15T00:37:50.585Z,76.2
2022-09-15T00:38:50.576Z,76.2
2022-09-15T00:39:50.560Z,75.96
2022-09-15T00:40:50.555Z,75.8
2022-09-15T00:41:50.542Z,76.17
2022-09-15T00:42:50.540Z,75.87
2022-09-15T00:43:50.519Z,75.9
2022-09-15T00:44:50.513Z,76
2022-09-15T00:45:50.501Z,75.9
2022-09-15T00:46:50.487Z,75.8
2022-09-15T00:47:50.478Z,75.7
2022-09-15T00:48:50.469Z,75.8
2022-09-15T00:49:50.461Z,75.8
2022-09-15T00:50:50.449Z,75.9
2022-09-15T00:51:50.436Z,75.9
2022-09-15T00:52:50.422Z,76.1
2022-09-15T00:53:50.413Z,76.1
2022-09-15T00:54:50.407Z,76.4
2022-09-15T00:55:50.391Z,76.4
2022-09-15T00:56:50.381Z,75.96
2022-09-15T00:57:50.371Z,76.07
2022-09-15T00:58:50.361Z,75.96
2022-09-15T00:59:50.347Z,75.67
2022-09-15T01:00:50.351Z,75.56
2022-09-15T01:01:50.330Z,75.43
2022-09-15T01:02:50.318Z,75.23
2022-09-15T01:03:50.305Z,75.43
2022-09-15T01:04:50.294Z,75.36
2022-09-15T01:05:50.296Z,75.46
2022-09-15T01:06:50.277Z,75.87
2022-09-15T01:07:50.268Z,75.67
2022-09-15T01:08:50.252Z,75.43
2022-09-15T01:09:50.244Z,75.33
2022-09-15T01:10:50.233Z,74.82
2022-09-15T01:11:50.223Z,75.33
2022-09-15T01:12:50.213Z,75.13
2022-09-15T01:13:50.204Z,75.02
2022-09-15T01:14:50.192Z,75.23
2022-09-15T01:15:50.178Z,75.23
2022-09-15T01:16:50.170Z,75.13
2022-09-15T01:17:50.161Z,75.23
2022-09-15T01:18:50.151Z,75.56
2022-09-15T01:19:50.139Z,75.76
2022-09-15T01:20:50.127Z,75.87
2022-09-15T01:21:50.119Z,75.33
2022-09-15T01:22:50.105Z,75.13
2022-09-15T01:23:50.094Z,75.23
2022-09-15T01:24:50.098Z,75.46
2022-09-15T01:25:50.075Z,75.53
2022-09-15T01:26:50.078Z,75.13
2022-09-15T01:27:50.053Z,75.36
2022-09-15T01:28:50.059Z,75.53
2022-09-15T01:29:50.036Z,75.43
2022-09-15T01:30:50.021Z,75.53
2022-09-15T01:31:50.021Z,75.43
2022-09-15T01:32:50.001Z,75.73
2022-09-15T01:33:49.989Z,75.63
2022-09-15T01:34:49.984Z,75.46
2022-09-15T01:35:49.975Z,76.07
2022-09-15T01:36:49.979Z,76.51
2022-09-15T01:37:49.950Z,76.77
2022-09-15T01:38:49.934Z,76.97
2022-09-15T01:39:49.926Z,76.77
2022-09-15T01:40:49.919Z,76.43
2022-09-15T01:41:49.909Z,76.43
2022-09-15T01:42:49.897Z,76.34
2022-09-15T01:43:49.895Z,76.14
2022-09-15T01:44:49.883Z,76.03
2022-09-15T01:45:49.862Z,75.59
2022-09-15T01:46:49.884Z,74.95
2022-09-15T01:47:49.841Z,74.62
2022-09-15T01:48:49.830Z,74.52
2022-09-15T01:49:49.827Z,74.21
2022-09-15T01:50:49.811Z,73.71
2022-09-15T01:51:49.802Z,74.45
2022-09-15T01:52:49.795Z,74.89
2022-09-15T01:53:49.782Z,74.89
2022-09-15T01:54:49.771Z,75.05
2022-09-15T01:55:49.763Z,74.85
2022-09-15T01:56:49.749Z,74.65
2022-09-15T01:57:49.735Z,74.15
2022-09-15T01:58:49.725Z,74.69
2022-09-15T01:59:49.718Z,75.49
2022-09-15T02:00:49.709Z,75.7
2022-09-15T02:01:49.694Z,76.2
2022-09-15T02:02:49.684Z,76.1
2022-09-15T02:03:49.679Z,75.9
2022-09-15T02:04:49.669Z,76.34
2022-09-15T02:05:49.653Z,77.17
2022-09-15T02:06:49.645Z,78.32
2022-09-15T02:07:49.638Z,78.42
2022-09-15T02:08:49.624Z,78.83
2022-09-15T02:09:49.609Z,79.13
2022-09-15T02:10:49.615Z,79.23
2022-09-15T02:11:49.588Z,79.36
2022-09-15T02:12:49.588Z,79.47
2022-09-15T02:13:49.569Z,79.81
2022-09-15T02:14:49.561Z,80.11
2022-09-15T02:15:49.546Z,80.51
2022-09-15T02:16:49.535Z,80.72
2022-09-15T02:17:49.522Z,80.72
2022-09-15T02:18:49.514Z,80.82
2022-09-15T02:19:49.504Z,81.02
2022-09-15T02:20:49.490Z,81.12
2022-09-15T02:21:49.478Z,81.02
2022-09-15T02:22:49.471Z,81.12
2022-09-15T02:23:49.455Z,81.22
2022-09-15T02:24:49.447Z,81.12
2022-09-15T02:25:49.436Z,81.36
2022-09-15T02:26:49.429Z,81.67
2022-09-15T02:27:49.418Z,81.76
2022-09-15T02:28:49.407Z,81.82
2022-09-15T02:29:49.396Z,81.42
2022-09-15T02:30:49.381Z,81.42
2022-09-15T02:31:49.376Z,81.52
2022-09-15T02:32:49.361Z,81.32
2022-09-15T02:33:49.355Z,81.22
2022-09-15T02:34:49.340Z,81.42
2022-09-15T02:35:49.331Z,80.92
2022-09-15T02:36:49.318Z,81.02
2022-09-15T02:37:49.309Z,80.92
2022-09-15T02:38:49.299Z,80.78
2022-09-15T02:39:49.293Z,80.72
2022-09-15T02:40:49.283Z,80.98
2022-09-15T02:41:49.267Z,80.68
2022-09-15T02:42:49.255Z,80.68
2022-09-15T02:43:49.254Z,80.82
2022-09-15T02:44:49.235Z,81.12
2022-09-15T02:45:49.224Z,81.02
2022-09-15T02:46:49.217Z,81.12
2022-09-15T02:47:49.209Z,80.98
2022-09-15T02:48:49.189Z,80.54
2022-09-15T02:49:49.181Z,80.24
2022-09-15T02:50:49.168Z,79.83
2022-09-15T02:51:49.161Z,80.04
2022-09-15T02:52:49.152Z,79.73
2022-09-15T02:53:49.133Z,79.53
2022-09-15T02:54:49.127Z,79.77
2022-09-15T02:55:49.128Z,80.07
2022-09-15T02:56:49.111Z,79.73
2022-09-15T02:57:49.100Z,79.83
2022-09-15T02:58:49.092Z,79.43
2022-09-15T02:59:49.070Z,79.53
2022-09-15T03:00:49.061Z,79.43
2022-09-15T03:01:49.055Z,79.73
2022-09-15T03:02:49.045Z,79.63
2022-09-15T03:03:49.028Z,79.77
2022-09-15T03:04:49.022Z,79.57
2022-09-15T03:05:49.015Z,79.47
2022-09-15T03:06:49.000Z,79.47
2022-09-15T03:07:48.986Z,79.06
2022-09-15T03:08:48.974Z,80.96
2022-09-15T03:09:48.971Z,80.9
2022-09-15T03:10:48.961Z,81.16
2022-09-15T03:11:48.949Z,81.76
2022-09-15T03:12:48.936Z,80.92
2022-09-15T03:13:48.925Z,80.07
2022-09-15T03:14:48.913Z,79.5
2022-09-15T03:15:48.916Z,80.21
2022-09-15T03:16:48.903Z,79.81
2022-09-15T03:17:48.884Z,79.61
2022-09-15T03:18:48.884Z,79.41
2022-09-15T03:19:48.864Z,79.41
2022-09-15T03:20:48.852Z,79.71
2022-09-15T03:21:48.840Z,79.57
2022-09-15T03:22:48.832Z,79.57
2022-09-15T03:23:48.814Z,79.27
2022-09-15T03:24:48.806Z,78.96
2022-09-15T03:25:48.797Z,79.36
2022-09-15T03:26:48.788Z,79.41
2022-09-15T03:27:48.776Z,79.5
2022-09-15T03:28:48.761Z,79.61
2022-09-15T03:29:48.752Z,79.71
2022-09-15T03:30:48.739Z,80.05
2022-09-15T03:31:48.728Z,80.35
2022-09-15T03:32:48.719Z,80.55
2022-09-15T03:33:48.740Z,80.85
2022-09-15T03:34:48.700Z,80.85
2022-09-15T03:35:48.685Z,80.85
2022-09-15T03:36:48.679Z,80.76
2022-09-15T03:37:48.665Z,80.76
2022-09-15T03:38:48.650Z,80.96
2022-09-15T03:39:48.655Z,81.16
2022-09-15T03:40:48.633Z,80.85
2022-09-15T03:41:48.621Z,80.79
2022-09-15T03:42:48.610Z,80.85
2022-09-15T03:43:48.613Z,80.65
2022-09-15T03:44:48.594Z,80.76
2022-09-15T03:45:48.577Z,80.55
2022-09-15T03:46:48.568Z,80.49
2022-09-15T03:47:48.557Z,80.93
2022-09-15T03:48:48.553Z,81.1
2022-09-15T03:49:48.540Z,81.4
2022-09-15T03:50:48.534Z,81.3
2022-09-15T03:51:48.519Z,80.9
2022-09-15T03:52:48.503Z,80.9
2022-09-15T03:53:48.500Z,81.1
2022-09-15T03:54:48.487Z,81.36
2022-09-15T03:55:48.477Z,80.82
2022-09-15T03:56:48.461Z,80.01
2022-09-15T03:57:48.452Z,80.11
2022-09-15T03:58:48.439Z,79.5
2022-09-15T03:59:48.427Z,79.27
2022-09-15T04:00:48.419Z,78.86
2022-09-15T04:01:48.409Z,78.86
2022-09-15T04:02:48.400Z,78.7
2022-09-15T04:03:48.384Z,78.7
2022-09-15T04:04:48.375Z,79.06
2022-09-15T04:05:48.362Z,78.66
2022-09-15T04:06:48.359Z,78.66
2022-09-15T04:07:48.357Z,78.5
2022-09-15T04:08:48.339Z,78.9
2022-09-15T04:09:48.322Z,79
2022-09-15T04:10:48.311Z,79.27
2022-09-15T04:11:48.303Z,79.27
2022-09-15T04:12:48.290Z,78.86
2022-09-15T04:13:48.278Z,79.06
2022-09-15T04:14:48.321Z,78.56
2022-09-15T04:15:48.256Z,78.39
2022-09-15T04:16:48.255Z,78.84
2022-09-15T04:17:48.247Z,79.34
2022-09-15T04:18:48.238Z,79.64
2022-09-15T04:19:48.217Z,80.08
2022-09-15T04:20:48.216Z,80.15
2022-09-15T04:21:48.196Z,80.19
2022-09-15T04:22:48.187Z,80.35
2022-09-15T04:23:48.186Z,80.35
2022-09-15T04:24:48.160Z,80.01
2022-09-15T04:25:48.152Z,79.91
2022-09-15T04:26:48.139Z,79.5
2022-09-15T04:27:48.146Z,79.44
2022-09-15T04:28:48.128Z,79.44
2022-09-15T04:29:48.116Z,79.54
2022-09-15T04:30:48.101Z,79.5
2022-09-15T04:31:48.086Z,79.44
2022-09-15T04:32:48.075Z,79.54
2022-09-15T04:33:48.070Z,79.5
2022-09-15T04:34:48.066Z,79.44
2022-09-15T04:35:48.055Z,79.99
2022-09-15T04:36:48.056Z,80.69
2022-09-15T04:37:48.022Z,80.39
2022-09-15T04:38:48.024Z,80.39
2022-09-15T04:39:48.014Z,80.25
2022-09-15T04:40:47.997Z,80.39
2022-09-15T04:41:47.978Z,80.35
2022-09-15T04:42:47.973Z,80.15
2022-09-15T04:43:47.959Z,79.81
2022-09-15T04:44:47.950Z,79.61
2022-09-15T04:45:47.941Z,79.06
2022-09-15T04:46:47.943Z,78.56
2022-09-15T04:47:47.916Z,78.16
2022-09-15T04:48:47.915Z,78.06
2022-09-15T04:49:47.904Z,78.16
2022-09-15T04:50:47.927Z,77.95
2022-09-15T04:51:47.876Z,78.19
2022-09-15T04:52:47.871Z,78.9
2022-09-15T04:53:47.887Z,78.5
2022-09-15T04:54:47.891Z,79.68
2022-09-15T04:55:47.832Z,80.15
2022-09-15T04:56:47.821Z,79.3
2022-09-15T04:57:47.813Z,78.8
2022-09-15T04:58:47.802Z,78.59
2022-09-15T04:59:47.842Z,78.59
2022-09-15T05:00:47.795Z,78.39
2022-09-15T05:01:47.780Z,78.5
2022-09-15T05:02:47.755Z,78.5
2022-09-15T05:03:47.751Z,78.7
2022-09-15T05:04:47.736Z,78.26
2022-09-15T05:05:47.740Z,78.06
2022-09-15T05:06:47.713Z,78.06
2022-09-15T05:07:47.720Z,78.06
2022-09-15T05:08:47.696Z,77.86
2022-09-15T05:09:47.692Z,77.95
2022-09-15T05:10:47.672Z,78.09
2022-09-15T05:11:47.659Z,78.19
2022-09-15T05:12:47.652Z,78.7
2022-09-15T05:13:47.643Z,78.56
2022-09-15T05:14:47.633Z,77.95
2022-09-15T05:15:47.637Z,77.99
2022-09-15T05:16:47.607Z,78.19
2022-09-15T05:17:47.601Z,78.39
2022-09-15T05:18:47.588Z,78.39
2022-09-15T05:19:47.590Z,78.66
2022-09-15T05:20:47.566Z,78.46
2022-09-15T05:21:47.571Z,78.22
2022-09-15T05:22:47.546Z,77.92
2022-09-15T05:23:47.535Z,77.58
2022-09-15T05:24:47.536Z,77.28
2022-09-15T05:25:47.512Z,76.97
2022-09-15T05:26:47.500Z,76.67
2022-09-15T05:27:47.499Z,76.43
2022-09-15T05:28:47.480Z,76.54
2022-09-15T05:29:47.492Z,76.43
2022-09-15T05:30:47.463Z,76.34
2022-09-15T05:31:47.449Z,76.23
2022-09-15T05:32:47.443Z,75.93
2022-09-15T05:33:47.449Z,75.93
2022-09-15T05:34:47.412Z,75.73
2022-09-15T05:35:47.408Z,75.53
2022-09-15T05:36:47.421Z,75.96
2022-09-15T05:37:47.401Z,76.27
2022-09-15T05:38:47.370Z,76.47
2022-09-15T05:39:47.384Z,76.37
2022-09-15T05:40:47.350Z,76.57
2022-09-15T05:41:47.345Z,76.97
2022-09-15T05:42:47.348Z,76.67
2022-09-15T05:43:47.318Z,76.03
2022-09-15T05:44:47.331Z,76.03
2022-09-15T05:45:47.301Z,75.83
2022-09-15T05:46:47.286Z,75.49
2022-09-15T05:47:47.281Z,75.19
2022-09-15T05:48:47.267Z,74.99
2022-09-15T05:49:47.254Z,75.09
2022-09-15T05:50:47.250Z,75.09
2022-09-15T05:51:47.262Z,74.99
2022-09-15T05:52:47.229Z,74.89
2022-09-15T05:53:47.212Z,74.79
2022-09-15T05:54:47.337Z,74.79
2022-09-15T05:55:47.198Z,74.69
2022-09-15T05:56:47.202Z,74.69
2022-09-15T05:57:47.182Z,74.49
2022-09-15T05:58:47.165Z,74.18
2022-09-15T05:59:47.152Z,74.29
2022-09-15T06:00:47.139Z,74.38
2022-09-15T06:01:47.145Z,74.82
2022-09-15T06:02:47.157Z,75.26
2022-09-15T06:03:47.107Z,75.67
2022-09-15T06:04:47.134Z,76.17
2022-09-15T06:05:47.089Z,76.37
2022-09-15T06:06:47.100Z,76.47
2022-09-15T06:07:47.073Z,76.37
2022-09-15T06:08:47.056Z,76.17
2022-09-15T06:09:47.046Z,75.76
2022-09-15T06:10:47.043Z,75.87
2022-09-15T06:11:47.025Z,76.17
2022-09-15T06:12:47.018Z,75.76
2022-09-15T06:13:47.013Z,75.53
2022-09-15T06:14:47.000Z,75.29
2022-09-15T06:15:46.985Z,75.29
2022-09-15T06:16:46.973Z,75.29
2022-09-15T06:17:46.969Z,75.33
2022-09-15T06:18:46.975Z,75.76
2022-09-15T06:19:46.963Z,75.96
2022-09-15T06:20:46.944Z,76
2022-09-15T06:21:46.927Z,76.81
2022-09-15T06:22:46.930Z,77.01
2022-09-15T06:23:46.901Z,77.08
2022-09-15T06:24:46.895Z,76.64
2022-09-15T06:25:46.883Z,75.96
2022-09-15T06:26:46.884Z,76.17
2022-09-15T06:27:46.862Z,76.51
2022-09-15T06:28:46.863Z,76.91
2022-09-15T06:29:46.851Z,77.11
2022-09-15T06:30:46.831Z,77.42
2022-09-15T06:31:46.822Z,77.28
2022-09-15T06:32:46.812Z,76.64
2022-09-15T06:33:46.804Z,75.76
2022-09-15T06:34:46.792Z,74.41
2022-09-15T06:35:46.801Z,73.81
2022-09-15T06:36:46.767Z,73.71
2022-09-15T06:37:46.770Z,73.61
2022-09-15T06:38:46.749Z,73.61
2022-09-15T06:39:46.757Z,73.91
2022-09-15T06:40:46.736Z,73.47
2022-09-15T06:41:46.716Z,73.21
2022-09-15T06:42:46.704Z,73.81
2022-09-15T06:43:46.725Z,73.68
2022-09-15T06:44:46.782Z,73.51
2022-09-15T06:45:46.690Z,73.81
2022-09-15T06:46:46.676Z,74.15
2022-09-15T06:47:46.655Z,74.45
2022-09-15T06:48:46.655Z,74.25
2022-09-15T06:49:46.646Z,74.65
2022-09-15T06:50:46.650Z,74.82
2022-09-15T06:51:46.615Z,74.32
2022-09-15T06:52:46.600Z,74.32
2022-09-15T06:53:46.601Z,74.45
2022-09-15T06:54:46.587Z,74.95
2022-09-15T06:55:46.601Z,75.15
2022-09-15T06:56:46.567Z,75.12
2022-09-15T06:57:46.564Z,74.78
2022-09-15T06:58:46.547Z,74.18
2022-09-15T06:59:46.534Z,73.47
2022-09-15T07:00:46.538Z,73.51
2022-09-15T07:01:46.527Z,73.91
2022-09-15T07:02:46.502Z,74.41
2022-09-15T07:03:46.489Z,74.75
2022-09-15T07:04:46.482Z,75.29
2022-09-15T07:05:46.464Z,75.59
2022-09-15T07:06:46.468Z,75.59
2022-09-15T07:07:46.470Z,75.49
2022-09-15T07:08:46.439Z,75.46
2022-09-15T07:09:46.429Z,74.95
2022-09-15T07:10:46.418Z,74.95
2022-09-15T07:11:46.407Z,74.85
2022-09-15T07:12:46.403Z,75.29
2022-09-15T07:13:46.394Z,75.59
2022-09-15T07:14:46.378Z,75.7
2022-09-15T07:15:46.374Z,75.49
2022-09-15T07:16:46.361Z,75.79
2022-09-15T07:17:46.354Z,75.9
2022-09-15T07:18:46.339Z,75.59
2022-09-15T07:19:46.329Z,75.46
2022-09-15T07:20:46.314Z,75.26
2022-09-15T07:21:46.304Z,75.32
2022-09-15T07:22:46.295Z,74.82
2022-09-15T07:23:46.311Z,74.65
2022-09-15T07:24:46.278Z,74.99
2022-09-15T07:25:46.278Z,75.46
2022-09-15T07:26:46.250Z,74.92
2022-09-15T07:27:46.252Z,74.72
2022-09-15T07:28:46.241Z,74.72
2022-09-15T07:29:46.228Z,74.95
2022-09-15T07:30:46.212Z,74.82
2022-09-15T07:31:46.222Z,74.82
2022-09-15T07:32:46.192Z,74.72
2022-09-15T07:33:46.185Z,74.41
2022-09-15T07:34:46.173Z,74.72
2022-09-15T07:35:46.163Z,74.38
2022-09-15T07:36:46.190Z,74.52
2022-09-15T07:37:46.137Z,74.58
2022-09-15T07:38:46.131Z,74.08
2022-09-15T07:39:46.122Z,74.21
2022-09-15T07:40:46.151Z,74.62
2022-09-15T07:41:46.095Z,74.95
2022-09-15T07:42:46.096Z,74.75
2022-09-15T07:43:46.111Z,74.95
2022-09-15T07:44:46.086Z,74.62
2022-09-15T07:45:46.062Z,74.85
2022-09-15T07:46:46.055Z,74.65
2022-09-15T07:47:46.068Z,74.85
2022-09-15T07:48:46.054Z,74.65
2022-09-15T07:49:46.109Z,74.65
2022-09-15T07:50:46.006Z,74.35
2022-09-15T07:51:45.993Z,74.21
2022-09-15T07:52:45.987Z,73.61
2022-09-15T07:53:45.976Z,73.85
2022-09-15T07:54:45.961Z,74.35
2022-09-15T07:55:45.958Z,74.55
2022-09-15T07:56:45.943Z,74.35
2022-09-15T07:57:45.938Z,74.35
2022-09-15T07:58:45.926Z,74.49
2022-09-15T07:59:45.917Z,74.69
2022-09-15T08:00:45.923Z,74.85
2022-09-15T08:01:45.893Z,74.35
2022-09-15T08:02:45.910Z,74.15
2022-09-15T08:03:45.879Z,74.45
2022-09-15T08:04:45.861Z,74.21
2022-09-15T08:05:45.850Z,73.88
2022-09-15T08:06:45.846Z,73.18
2022-09-15T08:07:45.871Z,73.18
2022-09-15T08:08:45.817Z,73.07
2022-09-15T08:09:45.969Z,73.27
2022-09-15T08:10:45.830Z,73.27
2022-09-15T08:11:45.799Z,72.87
2022-09-15T08:12:45.783Z,73.11
2022-09-15T08:13:45.778Z,73.31
2022-09-15T08:14:45.763Z,73.31
2022-09-15T08:15:45.755Z,73.38
2022-09-15T08:16:45.747Z,72.97
2022-09-15T08:17:45.729Z,72.97
2022-09-15T08:18:45.725Z,72.67
2022-09-15T08:19:46.728Z,73.41
2022-09-15T08:20:45.731Z,73.61
2022-09-15T08:21:45.688Z,73.51
2022-09-15T08:22:45.670Z,73.95
2022-09-15T08:23:45.704Z,73.41
2022-09-15T08:24:45.658Z,73.51
2022-09-15T08:25:45.651Z,73.51
2022-09-15T08:26:45.630Z,73.04
2022-09-15T08:27:45.636Z,73.35
2022-09-15T08:28:45.636Z,73.71
2022-09-15T08:29:45.624Z,73.31
2022-09-15T08:30:45.613Z,72.87
2022-09-15T08:31:45.575Z,72.91
2022-09-15T08:32:45.565Z,72.81
2022-09-15T08:33:45.558Z,72.71
2022-09-15T08:34:45.558Z,72.54
2022-09-15T08:35:45.594Z,72.84
2022-09-15T08:36:45.524Z,73.14
2022-09-15T08:37:45.522Z,73.21
2022-09-15T08:38:45.519Z,72.91
2022-09-15T08:39:45.489Z,72.61
2022-09-15T08:40:45.482Z,73.04
2022-09-15T08:41:45.469Z,73.04
2022-09-15T08:42:45.461Z,73.04
2022-09-15T08:43:45.445Z,73.14
2022-09-15T08:44:45.439Z,73.24
2022-09-15T08:45:45.447Z,72.94
2022-09-15T08:46:45.429Z,72.44
2022-09-15T08:47:45.403Z,72.44
2022-09-15T08:48:45.387Z,72.54
2022-09-15T08:49:45.375Z,72.3
2022-09-15T08:50:45.368Z,71.5
2022-09-15T08:51:45.361Z,71.7
2022-09-15T08:52:45.349Z,71.7
2022-09-15T08:53:45.393Z,71.56
2022-09-15T08:54:45.330Z,70.76
2022-09-15T08:55:45.357Z,71.06
2022-09-15T08:56:45.314Z,71.13
2022-09-15T08:57:45.293Z,70.39
2022-09-15T08:58:45.298Z,69.99
2022-09-15T08:59:45.364Z,69.69
2022-09-15T09:00:45.263Z,69.32
2022-09-15T09:01:45.276Z,70.03
2022-09-15T09:02:45.238Z,69.52
2022-09-15T09:03:45.247Z,69.72
2022-09-15T09:04:45.221Z,69.52
2022-09-15T09:05:45.211Z,69.19
2022-09-15T09:06:45.199Z,68.88
2022-09-15T09:07:45.185Z,68.55
2022-09-15T09:08:45.187Z,67.85
2022-09-15T09:09:45.173Z,68.25
2022-09-15T09:10:45.152Z,67.65
2022-09-15T09:11:45.141Z,67.55
2022-09-15T09:12:45.132Z,67.55
2022-09-15T09:13:45.125Z,67.14
2022-09-15T09:14:45.146Z,66.91
2022-09-15T09:15:45.125Z,66.52
2022-09-15T09:16:45.131Z,66.31
2022-09-15T09:17:45.087Z,66.61
2022-09-15T09:18:45.078Z,66.85
2022-09-15T09:19:45.064Z,67.18
2022-09-15T09:20:45.060Z,67.48
2022-09-15T09:21:45.040Z,67.14
2022-09-15T09:22:45.029Z,67.05
2022-09-15T09:23:45.015Z,67.05
2022-09-15T09:24:45.009Z,66.71
2022-09-15T09:25:45.077Z,66.52
2022-09-15T09:26:45.030Z,67.14
2022-09-15T09:27:45.061Z,66.64
2022-09-15T09:28:44.968Z,65.91
2022-09-15T09:29:44.969Z,65.65
2022-09-15T09:30:44.947Z,64.75
2022-09-15T09:31:44.945Z,64.68
2022-09-15T09:32:44.924Z,64.58
2022-09-15T09:33:44.931Z,65.08
2022-09-15T09:34:44.901Z,64.84
2022-09-15T09:35:44.912Z,64.88
2022-09-15T09:36:44.877Z,65.11
2022-09-15T09:37:44.873Z,65.24
2022-09-15T09:38:44.873Z,65.21
2022-09-15T09:39:44.848Z,65.41
2022-09-15T09:40:44.840Z,65.21
2022-09-15T09:41:44.849Z,65.38
2022-09-15T09:42:44.818Z,64.58
2022-09-15T09:43:44.808Z,64.34
2022-09-15T09:44:44.802Z,64.37
2022-09-15T09:45:44.841Z,64.48
2022-09-15T09:46:44.777Z,63.92
2022-09-15T09:47:44.772Z,62.78
2022-09-15T09:48:44.767Z,62.65
2022-09-15T09:49:44.776Z,61.88
2022-09-15T09:50:44.753Z,62.81
2022-09-15T09:51:44.728Z,63.45
2022-09-15T09:52:44.713Z,63.57
2022-09-15T09:53:44.708Z,64.07
2022-09-15T09:54:44.695Z,62.87
2022-09-15T09:55:44.826Z,63.31
2022-09-15T09:56:44.679Z,63.5
2022-09-15T09:57:44.665Z,63.67
2022-09-15T09:58:44.649Z,63.34
2022-09-15T09:59:44.645Z,62.54
2022-09-15T10:00:44.627Z,62.81
2022-09-15T10:01:44.642Z,62.84
2022-09-15T10:02:44.607Z,62.84
2022-09-15T10:03:44.615Z,62.6
2022-09-15T10:04:44.610Z,63.64
2022-09-15T10:05:44.575Z,64.27
2022-09-15T10:06:44.568Z,64.24
2022-09-15T10:07:44.553Z,63.76
2022-09-15T10:08:44.546Z,64.37
2022-09-15T10:09:44.533Z,64.9
2022-09-15T10:10:44.586Z,64.97
2022-09-15T10:11:44.543Z,65.07
2022-09-15T10:12:44.497Z,65.17
2022-09-15T10:13:44.492Z,64.57
2022-09-15T10:14:44.483Z,64.07
2022-09-15T10:15:44.480Z,63.73
2022-09-15T10:16:44.461Z,63.73
2022-09-15T10:17:44.447Z,63.73
2022-09-15T10:18:44.440Z,63.43
2022-09-15T10:19:44.430Z,63.64
2022-09-15T10:20:44.415Z,63.13
2022-09-15T10:21:44.407Z,63.2
2022-09-15T10:22:44.397Z,63.33
2022-09-15T10:23:44.389Z,62.8
2022-09-15T10:24:44.388Z,62.87
2022-09-15T10:25:44.490Z,61.81
2022-09-15T10:26:44.356Z,60.51
2022-09-15T10:27:44.344Z,61.01
2022-09-15T10:28:44.337Z,60.48
2022-09-15T10:29:44.327Z,60.25
2022-09-15T10:30:44.361Z,59.62
2022-09-15T10:31:44.317Z,58.8
2022-09-15T10:32:44.293Z,58.42
2022-09-15T10:33:44.307Z,58.32
2022-09-15T10:34:51.863Z,58.59
2022-09-15T10:35:44.263Z,58.06
2022-09-15T10:36:44.249Z,56.98
2022-09-15T10:37:44.260Z,55.76
2022-09-15T10:38:44.245Z,54.71
2022-09-15T10:39:44.268Z,53.34
2022-09-15T10:40:44.216Z,52.81
2022-09-15T10:41:44.192Z,52.42
2022-09-15T10:42:44.204Z,53.69
2022-09-15T10:43:44.178Z,55.24
2022-09-15T10:44:44.170Z,55.46
2022-09-15T10:45:44.161Z,55.33
2022-09-15T10:46:44.138Z,55.24
2022-09-15T10:47:44.141Z,55.69
2022-09-15T10:48:44.119Z,57.31
2022-09-15T10:49:44.123Z,55.56
2022-09-15T10:50:44.117Z,55.76
2022-09-15T10:51:44.115Z,55.33
2022-09-15T10:52:44.120Z,55.13
2022-09-15T10:53:51.630Z,55.01
2022-09-15T10:54:44.059Z,53.61
2022-09-15T10:55:44.058Z,54.11
2022-09-15T10:56:44.087Z,52.32
2022-09-15T10:57:44.038Z,49.71
2022-09-15T10:58:44.026Z,48.92
2022-09-15T10:59:44.012Z,48.44
2022-09-15T11:00:43.988Z,49.36
2022-09-15T11:01:43.985Z,49.78
2022-09-15T11:02:43.978Z,49.78
2022-09-15T11:03:43.959Z,49.38
2022-09-15T11:04:43.954Z,49.19
2022-09-15T11:05:43.944Z,50.52
2022-09-15T11:06:51.055Z,50.1
2022-09-15T11:07:51.552Z,50.05
2022-09-15T11:08:43.912Z,51.05
2022-09-15T11:09:43.898Z,51.12
2022-09-15T11:10:51.541Z,51.94
2022-09-15T11:11:43.884Z,52.59
2022-09-15T11:12:43.867Z,53.32
2022-09-15T11:13:43.869Z,53.19
2022-09-15T11:14:43.850Z,52.02
2022-09-15T11:15:43.853Z,51.97
2022-09-15T11:16:43.825Z,51.15
2022-09-15T11:17:43.845Z,51.57
2022-09-15T11:18:43.867Z,52.27
2022-09-15T11:19:43.805Z,52.29
2022-09-15T11:20:44.812Z,52.29
2022-09-15T11:21:43.793Z,50.97
2022-09-15T11:22:43.784Z,50.3
2022-09-15T11:23:43.752Z,51.34
2022-09-15T11:24:43.751Z,49.23
2022-09-15T11:25:43.732Z,49.68
2022-09-15T11:26:43.720Z,50.74
2022-09-15T11:27:43.714Z,51.17
2022-09-15T11:28:43.721Z,51.97
2022-09-15T11:29:43.685Z,52.27
2022-09-15T11:30:43.762Z,51.82
2022-09-15T11:31:43.664Z,50
2022-09-15T11:32:43.659Z,50.52
2022-09-15T11:33:43.638Z,51.37
2022-09-15T11:34:43.674Z,52.29
2022-09-15T11:35:43.617Z,53.02
2022-09-15T11:36:43.606Z,53.55
2022-09-15T11:37:43.600Z,53.64
2022-09-15T11:38:43.589Z,52.69
2022-09-15T11:39:43.577Z,51.82
2022-09-15T11:40:43.563Z,48.79
2022-09-15T11:41:43.558Z,47.22
2022-09-15T11:42:43.674Z,45.93
2022-09-15T11:43:43.541Z,46.53
2022-09-15T11:44:43.526Z,45.47
2022-09-15T11:45:43.533Z,43.82
2022-09-15T11:46:43.519Z,43.32
2022-09-15T11:47:43.496Z,45.81
2022-09-15T11:48:43.485Z,47.29
2022-09-15T11:49:43.480Z,47.14
2022-09-15T11:50:43.464Z,45.49
2022-09-15T11:51:43.489Z,47.17
2022-09-15T11:52:43.441Z,48.33
2022-09-15T11:53:43.433Z,49.38
2022-09-15T11:54:43.450Z,50.84
2022-09-15T11:55:43.406Z,51.87
2022-09-15T11:56:43.403Z,52.32
2022-09-15T11:57:43.396Z,53.02
2022-09-15T11:58:43.392Z,51.57
2022-09-15T11:59:43.368Z,49.43
2022-09-15T12:00:43.362Z,47.44
2022-09-15T12:01:43.347Z,49.5
2022-09-15T12:02:43.371Z,47.56
2022-09-15T12:03:43.329Z,45.27
2022-09-15T12:04:43.312Z,44.53
2022-09-15T12:05:43.317Z,44.97
2022-09-15T12:06:43.296Z,45.59
2022-09-15T12:07:43.283Z,44.51
2022-09-15T12:08:43.397Z,43.08
2022-09-15T12:09:43.317Z,43.28
2022-09-15T12:10:43.253Z,43.74
2022-09-15T12:11:43.251Z,45.49
2022-09-15T12:12:43.234Z,44.95
2022-09-15T12:13:43.221Z,44.23
2022-09-15T12:14:43.210Z,43.71
2022-09-15T12:15:43.210Z,43.71
2022-09-15T12:16:43.189Z,42.57
2022-09-15T12:17:43.180Z,43.44
2022-09-15T12:18:43.174Z,44.43
2022-09-15T12:19:43.161Z,43.91
2022-09-15T12:20:43.147Z,46.03
2022-09-15T12:21:43.149Z,47.51
2022-09-15T12:22:43.128Z,47.79
2022-09-15T12:23:43.117Z,46.65
2022-09-15T12:24:43.122Z,47.71
2022-09-15T12:25:43.107Z,48.41
2022-09-15T12:26:43.086Z,47.44
2022-09-15T12:27:43.074Z,46.19
2022-09-15T12:28:43.087Z,46.28
2022-09-15T12:29:43.058Z,46.79
2022-09-15T12:30:43.068Z,48.11
2022-09-15T12:31:43.035Z,48.43
2022-09-15T12:32:43.025Z,47.49
2022-09-15T12:33:43.029Z,48.03
2022-09-15T12:34:43.004Z,45.9
2022-09-15T12:35:42.991Z,44.79
2022-09-15T12:36:42.986Z,44.18
2022-09-15T12:37:42.980Z,44.97
2022-09-15T12:38:43.002Z,43.12
2022-09-15T12:39:42.967Z,43.14
2022-09-15T12:40:42.939Z,44.81
2022-09-15T12:41:42.931Z,45.67
2022-09-15T12:42:42.922Z,46.59
2022-09-15T12:43:42.910Z,47.24
2022-09-15T12:44:42.905Z,48.28
2022-09-15T12:45:42.887Z,48.72
2022-09-15T12:46:42.887Z,49.22
2022-09-15T12:47:43.093Z,49.05
2022-09-15T12:48:42.860Z,49.9
2022-09-15T12:49:42.847Z,50.79
2022-09-15T12:50:42.965Z,51.2
2022-09-15T12:51:42.847Z,51.2
2022-09-15T12:52:42.821Z,51.52
2022-09-15T12:53:42.806Z,51.32
2022-09-15T12:54:42.796Z,51.32
2022-09-15T12:55:42.787Z,51.32